createdAt,value
2023-03-02T00:00:18.097Z,100.00
2023-03-02T00:05:46.282Z,100.00
2023-03-02T00:11:11.582Z,100.00
2023-03-02T00:16:35.931Z,100.00
2023-03-02T00:22:00.674Z,100.00
2023-03-02T00:27:27.022Z,100.00
2023-03-02T00:32:51.626Z,100.00
2023-03-02T00:38:16.722Z,100.00
2023-03-02T00:43:41.364Z,100.00
2023-03-02T00:49:05.028Z,100.00
2023-03-02T00:54:29.262Z,100.00
2023-03-02T00:59:53.680Z,100.00
2023-03-02T01:05:17.979Z,100.00
2023-03-02T01:10:43.282Z,100.00
2023-03-02T01:16:17.252Z,100.00
2023-03-02T01:21:42.073Z,100.00
2023-03-02T01:27:06.962Z,100.00
2023-03-02T01:32:31.697Z,100.00
2023-03-02T01:37:57.623Z,100.00
2023-03-02T01:43:27.321Z,100.00
2023-03-02T01:49:11.413Z,100.00
2023-03-02T01:54:37.112Z,100.00
2023-03-02T02:00:04.370Z,100.00
2023-03-02T02:05:33.840Z,100.00
2023-03-02T02:10:57.703Z,100.00
2023-03-02T02:16:21.019Z,100.00
2023-03-02T02:21:46.286Z,100.00
2023-03-02T02:27:12.611Z,100.00
2023-03-02T02:32:44.818Z,100.00
2023-03-02T02:38:13.706Z,100.00
2023-03-02T02:43:38.158Z,100.00
2023-03-02T02:49:02.733Z,100.00
2023-03-02T02:54:28.486Z,100.00
2023-03-02T02:59:56.882Z,100.00
2023-03-02T03:05:22.243Z,100.00
2023-03-02T03:10:53.167Z,100.00
2023-03-02T03:16:21.144Z,100.00
2023-03-02T03:21:45.735Z,100.00
2023-03-02T03:27:10.487Z,100.00
2023-03-02T03:32:35.867Z,100.00
2023-03-02T03:38:01.742Z,100.00
2023-03-02T03:43:26.456Z,100.00
2023-03-02T03:48:51.216Z,100.00
2023-03-02T03:54:16.267Z,100.00
2023-03-02T03:59:42.600Z,100.00
2023-03-02T04:05:08.419Z,100.00
2023-03-02T04:10:32.987Z,100.00
2023-03-02T04:16:05.374Z,100.00
2023-03-02T04:21:27.790Z,100.00
2023-03-02T04:26:52.637Z,100.00
2023-03-02T04:32:15.613Z,100.00
2023-03-02T04:37:38.427Z,99.15
2023-03-02T04:43:00.618Z,97.65
2023-03-02T04:48:22.982Z,96.29
2023-03-02T04:53:45.256Z,95.04
2023-03-02T04:59:07.793Z,93.94
2023-03-02T05:04:31.564Z,93.19
2023-03-02T05:09:53.928Z,92.55
2023-03-02T05:15:16.440Z,92.02
2023-03-02T05:20:39.775Z,91.50
2023-03-02T05:26:05.883Z,91.06
2023-03-02T05:31:40.918Z,90.65
2023-03-02T05:37:05.708Z,90.39
2023-03-02T05:42:28.640Z,90.31
2023-03-02T05:47:50.999Z,90.37
2023-03-02T05:53:14.105Z,90.26
2023-03-02T05:58:38.041Z,90.13
2023-03-02T06:04:03.033Z,89.94
2023-03-02T06:09:25.203Z,89.73
2023-03-02T06:14:49.166Z,89.49
2023-03-02T06:20:12.012Z,89.14
2023-03-02T06:25:37.197Z,88.83
2023-03-02T06:31:01.752Z,88.59
2023-03-02T06:36:24.219Z,88.32
2023-03-02T06:41:46.498Z,88.00
2023-03-02T06:47:08.691Z,87.73
2023-03-02T06:52:30.989Z,87.46
2023-03-02T06:57:53.213Z,87.19
2023-03-02T07:03:16.009Z,86.97
2023-03-02T07:08:38.918Z,86.77
2023-03-02T07:14:01.473Z,86.51
2023-03-02T07:19:26.451Z,86.11
2023-03-02T07:24:48.651Z,85.65
2023-03-02T07:30:15.195Z,85.21
2023-03-02T07:35:37.899Z,84.47
2023-03-02T07:41:03.451Z,83.67
2023-03-02T07:46:25.637Z,82.95
2023-03-02T07:51:47.965Z,82.27
2023-03-02T07:57:11.444Z,81.32
2023-03-02T08:02:34.810Z,80.33
2023-03-02T08:07:58.771Z,79.59
2023-03-02T08:13:22.150Z,78.80
2023-03-02T08:18:46.043Z,78.52
2023-03-02T08:24:11.309Z,77.94
2023-03-02T08:29:34.538Z,76.59
2023-03-02T08:34:57.280Z,75.64
2023-03-02T08:40:20.403Z,74.35
2023-03-02T08:45:43.241Z,73.95
2023-03-02T08:51:12.634Z,74.04
2023-03-02T08:56:39.855Z,73.61
2023-03-02T09:02:02.402Z,72.86
2023-03-02T09:07:24.657Z,71.72
2023-03-02T09:12:47.006Z,72.07
2023-03-02T09:18:09.509Z,71.39
2023-03-02T09:23:32.801Z,70.26
2023-03-02T09:28:55.229Z,70.05
2023-03-02T09:34:17.753Z,69.66
2023-03-02T09:39:40.002Z,68.65
2023-03-02T09:45:31.034Z,67.51
2023-03-02T09:51:04.080Z,66.92
2023-03-02T09:56:29.902Z,66.79
2023-03-02T10:01:57.104Z,65.81
2023-03-02T10:07:38.974Z,64.80
2023-03-02T10:13:09.167Z,64.01
2023-03-02T10:18:56.881Z,63.54
2023-03-02T10:24:30.649Z,60.64
2023-03-02T10:30:08.279Z,55.50
2023-03-02T10:35:36.837Z,51.99
2023-03-02T10:41:09.506Z,48.97
2023-03-02T10:46:33.350Z,47.88
2023-03-02T10:52:10.097Z,48.66
2023-03-02T10:57:44.182Z,48.52
2023-03-02T11:03:27.980Z,48.92
2023-03-02T11:08:50.427Z,46.70
2023-03-02T11:14:24.223Z,44.81
2023-03-02T11:19:50.987Z,45.33
2023-03-02T11:25:18.381Z,45.72
2023-03-02T11:30:45.519Z,44.82
2023-03-02T11:36:21.726Z,43.24
2023-03-02T11:41:46.681Z,43.20
2023-03-02T11:47:14.592Z,44.62
2023-03-02T11:52:46.308Z,42.38
2023-03-02T11:58:16.582Z,41.23
2023-03-02T12:03:46.491Z,41.51
2023-03-02T12:09:31.453Z,42.13
2023-03-02T12:14:58.344Z,41.07
2023-03-02T12:20:35.630Z,39.70
2023-03-02T12:26:09.641Z,41.32
2023-03-02T12:31:32.582Z,40.59
2023-03-02T12:37:04.474Z,42.16
2023-03-02T12:42:59.115Z,41.40
2023-03-02T12:48:51.231Z,42.10
2023-03-02T12:54:32.119Z,41.05
2023-03-02T12:59:58.565Z,41.77
2023-03-02T13:05:26.547Z,42.51
2023-03-02T13:11:09.479Z,42.02
2023-03-02T13:16:44.523Z,40.12
2023-03-02T13:22:08.949Z,39.15
2023-03-02T13:27:42.843Z,38.59
2023-03-02T13:33:08.090Z,38.86
2023-03-02T13:38:35.457Z,39.38
2023-03-02T13:43:58.657Z,39.85
2023-03-02T13:49:25.241Z,40.28
2023-03-02T13:54:53.187Z,39.46
2023-03-02T14:00:18.534Z,40.41
2023-03-02T14:05:42.009Z,39.96
2023-03-02T14:11:06.847Z,39.64
2023-03-02T14:16:31.341Z,39.89
2023-03-02T14:21:54.966Z,39.41
2023-03-02T14:27:18.060Z,38.88
2023-03-02T14:32:40.567Z,40.19
2023-03-02T14:38:05.942Z,40.04
2023-03-02T14:43:31.206Z,40.08
2023-03-02T14:48:53.699Z,40.28
2023-03-02T14:54:21.101Z,40.92
2023-03-02T14:59:44.323Z,41.31
2023-03-02T15:05:07.948Z,41.49
2023-03-02T15:10:35.169Z,41.20
2023-03-02T15:15:58.060Z,41.73
2023-03-02T15:21:22.701Z,42.02
2023-03-02T15:26:45.585Z,42.52
2023-03-02T15:32:12.027Z,42.53
2023-03-02T15:37:35.103Z,42.51
2023-03-02T15:42:57.759Z,43.71
2023-03-02T15:48:20.937Z,44.59
2023-03-02T15:53:44.803Z,45.39
2023-03-02T15:59:08.366Z,45.85
2023-03-02T16:04:32.891Z,46.34
2023-03-02T16:09:55.400Z,48.49
2023-03-02T16:15:18.195Z,50.96
2023-03-02T16:20:43.546Z,54.02
2023-03-02T16:26:07.749Z,57.35
2023-03-02T16:31:36.815Z,60.24
2023-03-02T16:36:59.884Z,62.28
2023-03-02T16:42:23.082Z,64.28
2023-03-02T16:47:45.661Z,66.22
2023-03-02T16:53:08.194Z,67.92
2023-03-02T16:58:31.107Z,69.14
2023-03-02T17:03:54.740Z,69.81
2023-03-02T17:09:17.445Z,70.32
2023-03-02T17:14:40.919Z,71.29
2023-03-02T17:20:03.500Z,72.57
2023-03-02T17:25:26.942Z,74.17
2023-03-02T17:30:49.674Z,75.24
2023-03-02T17:36:15.985Z,75.44
2023-03-02T17:41:39.978Z,76.54
2023-03-02T17:52:36.896Z,77.53
2023-03-02T17:57:59.587Z,78.17
2023-03-02T18:03:22.602Z,78.66
2023-03-02T18:08:44.956Z,79.54
2023-03-02T18:14:08.336Z,80.45
2023-03-02T18:19:31.129Z,81.17
2023-03-02T18:24:53.429Z,82.03
2023-03-02T18:30:17.841Z,82.77
2023-03-02T18:35:40.858Z,83.70
2023-03-02T18:41:04.503Z,84.70
2023-03-02T18:46:33.864Z,85.66
2023-03-02T18:51:56.967Z,86.32
2023-03-02T18:57:22.855Z,87.05
2023-03-02T19:02:46.155Z,87.64
2023-03-02T19:08:09.182Z,88.18
2023-03-02T19:13:32.126Z,88.88
2023-03-02T19:18:54.548Z,89.73
2023-03-02T19:24:17.688Z,90.50
2023-03-02T19:29:40.259Z,91.28
2023-03-02T19:35:03.571Z,92.11
2023-03-02T19:40:30.459Z,93.02
2023-03-02T19:45:53.313Z,93.88
2023-03-02T19:51:17.968Z,94.82
2023-03-02T19:56:43.879Z,95.68
2023-03-02T20:02:09.279Z,96.45
2023-03-02T20:07:33.815Z,97.25
2023-03-02T20:12:59.271Z,97.85
2023-03-02T20:18:26.194Z,98.54
2023-03-02T20:23:50.243Z,99.10
2023-03-02T20:29:16.221Z,99.64
2023-03-02T20:34:40.664Z,100.00
2023-03-02T20:40:06.073Z,100.00
2023-03-02T20:45:30.789Z,100.00
2023-03-02T20:50:57.367Z,100.00
2023-03-02T20:56:22.395Z,100.00
2023-03-02T21:01:47.790Z,100.00
2023-03-02T21:07:12.703Z,100.00
2023-03-02T21:12:37.471Z,100.00
2023-03-02T21:18:02.368Z,100.00
2023-03-02T21:23:27.541Z,100.00
2023-03-02T21:28:51.594Z,100.00
2023-03-02T21:34:16.081Z,100.00
2023-03-02T21:39:41.076Z,100.00
2023-03-02T21:45:06.230Z,100.00
2023-03-02T21:50:37.196Z,100.00
2023-03-02T21:56:02.322Z,100.00
2023-03-02T22:01:27.379Z,100.00
2023-03-02T22:06:52.892Z,100.00
2023-03-02T22:12:20.971Z,100.00
2023-03-02T22:17:46.412Z,100.00
2023-03-02T22:23:13.872Z,100.00
2023-03-02T22:28:41.437Z,100.00
2023-03-02T22:34:06.011Z,100.00
2023-03-02T22:39:39.932Z,100.00
2023-03-02T22:45:12.414Z,100.00
2023-03-02T22:50:42.465Z,100.00
2023-03-02T22:56:10.490Z,100.00
2023-03-02T23:01:47.682Z,100.00
2023-03-02T23:07:21.342Z,100.00
2023-03-02T23:12:48.943Z,100.00
2023-03-02T23:18:18.823Z,100.00
2023-03-02T23:23:45.113Z,100.00
2023-03-02T23:29:10.308Z,100.00
2023-03-02T23:34:34.687Z,100.00
2023-03-02T23:39:58.632Z,100.00
2023-03-02T23:45:23.812Z,100.00
2023-03-02T23:50:48.517Z,100.00
2023-03-02T23:56:14.773Z,100.00
